KCMI/CMI METAR and TAF weather

Enter ICAO airport designator
Station Type Date Time Source
KCMI METAR 2022/07/01 01:53 UTC NOAA

KCMI 010153Z 21006KT 10SM CLR 23/16 A3000 RMK AO2 SLP153 T02330161


Station Type Date Time Source
KCMI Decoded METAR 2022/07/01 01:53 UTC NOAA

UNIV OF ILLINOIS-WILLARD, IL, United States (KCMI) 40-02N 088-16W 228M
Jun 30, 2022 - 09:53 PM EDT / 2022.07.01 0153 UTC
Wind: from the SSW (210 degrees) at 7 MPH (6 KT):0
Visibility: 10 mile(s):0
Sky conditions: clear
Temperature: 73.9 F (23.3 C)
Dew Point: 61.0 F (16.1 C)
Relative Humidity: 63%
Pressure (altimeter): 30 in. Hg (1015 hPa)
ob: KCMI 010153Z 21006KT 10SM CLR 23/16 A3000 RMK AO2 SLP153 T02330161
cycle: 2

Station Type Date Time Source
KCMI TAF 2022/06/30 18:24 UTC NOAA

TAF KCMI 301723Z 3018/0118 20011G18KT P6SM FEW250
FM010100 19007KT P6SM FEW250
FM011500 23013KT P6SM SCT040 BKN250

Example: see airport list